createdAt,value
2023-01-17T00:04:21.989Z,97657.77
2023-01-17T00:08:43.972Z,97647.61
2023-01-17T00:12:53.852Z,97642.13
2023-01-17T00:16:57.209Z,97640.79
2023-01-17T00:21:19.063Z,97640.98
2023-01-17T00:25:47.705Z,97632.17
2023-01-17T00:29:51.056Z,97632.57
2023-01-17T00:33:54.362Z,97633.67
2023-01-17T00:38:09.103Z,97627.61
2023-01-17T00:42:12.392Z,97628.14
2023-01-17T00:46:34.443Z,97629.52
2023-01-17T00:50:57.142Z,97622.25
2023-01-17T00:55:19.262Z,97613.64
2023-01-17T00:59:41.659Z,97603.88
2023-01-17T01:04:03.611Z,97597.34
2023-01-17T01:08:55.123Z,97588.05
2023-01-17T01:13:17.200Z,97591.91
2023-01-17T01:17:39.443Z,97593.53
2023-01-17T01:22:02.482Z,97586.21
2023-01-17T01:26:24.588Z,97585.20
2023-01-17T01:30:46.644Z,97588.67
2023-01-17T01:34:49.970Z,97580.97
2023-01-17T01:38:54.782Z,97577.86
2023-01-17T01:43:00.468Z,97564.34
2023-01-17T01:47:05.312Z,97551.04
2023-01-17T01:51:13.807Z,97539.02
2023-01-17T01:55:27.333Z,97538.58
2023-01-17T01:59:33.491Z,97535.77
2023-01-17T02:03:40.711Z,97533.10
2023-01-17T02:07:52.129Z,97529.54
2023-01-17T02:11:56.128Z,97530.37
2023-01-17T02:16:36.677Z,97530.71
2023-01-17T02:21:06.142Z,97507.55
2023-01-17T02:25:31.593Z,97505.33
2023-01-17T02:29:55.091Z,97519.73
2023-01-17T02:34:15.679Z,97509.94
2023-01-17T02:38:49.819Z,97507.81
2023-01-17T02:43:06.042Z,97510.00
2023-01-17T02:47:22.072Z,97508.04
2023-01-17T02:51:56.608Z,97514.09
2023-01-17T02:56:32.575Z,97505.21
2023-01-17T03:00:52.806Z,97502.23
2023-01-17T03:05:04.903Z,97507.23
2023-01-17T03:09:10.701Z,97502.89
2023-01-17T03:13:14.479Z,97498.05
2023-01-17T03:17:18.133Z,97499.86
2023-01-17T03:21:24.019Z,97500.66
2023-01-17T03:25:27.549Z,97498.38
2023-01-17T03:29:32.728Z,97499.18
2023-01-17T03:33:37.409Z,97493.12
2023-01-17T03:37:44.324Z,97494.63
2023-01-17T03:41:48.717Z,97487.38
2023-01-17T03:45:55.253Z,97481.55
2023-01-17T03:49:58.774Z,97485.52
2023-01-17T03:54:04.928Z,97484.36
2023-01-17T03:58:10.722Z,97482.90
2023-01-17T04:02:15.143Z,97479.02
2023-01-17T04:06:19.267Z,97480.13
2023-01-17T04:10:23.439Z,97475.33
2023-01-17T04:14:27.805Z,97471.59
2023-01-17T04:18:31.232Z,97475.66
2023-01-17T04:22:34.740Z,97478.11
2023-01-17T04:26:38.131Z,97484.09
2023-01-17T04:30:42.163Z,97478.80
2023-01-17T04:34:45.836Z,97478.75
2023-01-17T04:38:49.280Z,97482.98
2023-01-17T04:42:54.525Z,97493.10
2023-01-17T04:46:57.978Z,97494.77
2023-01-17T04:51:06.259Z,97491.64
2023-01-17T04:55:16.791Z,97496.59
2023-01-17T04:59:20.327Z,97496.83
2023-01-17T05:03:25.424Z,97495.21
2023-01-17T05:07:29.698Z,97502.27
2023-01-17T05:11:34.587Z,97501.10
2023-01-17T05:15:43.787Z,97501.30
2023-01-17T05:19:48.705Z,97501.35
2023-01-17T05:23:52.871Z,97507.34
2023-01-17T05:28:05.938Z,97511.54
2023-01-17T05:32:19.092Z,97515.80
2023-01-17T05:36:29.180Z,97514.48
2023-01-17T05:40:35.997Z,97513.25
2023-01-17T05:44:39.736Z,97519.63
2023-01-17T05:48:43.413Z,97522.23
2023-01-17T05:53:01.782Z,97524.92
2023-01-17T05:57:11.761Z,97532.10
2023-01-17T06:01:15.513Z,97537.55
2023-01-17T06:05:19.838Z,97535.30
2023-01-17T06:09:23.351Z,97536.39
2023-01-17T06:13:27.476Z,97541.27
2023-01-17T06:17:31.972Z,97546.03
2023-01-17T06:21:41.835Z,97548.47
2023-01-17T06:25:52.103Z,97557.61
2023-01-17T06:29:57.257Z,97558.64
2023-01-17T06:34:06.026Z,97561.39
2023-01-17T06:38:20.449Z,97564.11
2023-01-17T06:42:24.158Z,97575.38
2023-01-17T06:46:31.962Z,97579.67
2023-01-17T06:50:35.772Z,97584.55
2023-01-17T06:54:40.060Z,97587.10
2023-01-17T06:58:44.145Z,97584.84
2023-01-17T07:02:54.348Z,97583.42
2023-01-17T07:07:04.773Z,97589.16
2023-01-17T07:11:09.331Z,97582.29
2023-01-17T07:15:15.047Z,97576.99
2023-01-17T07:19:18.745Z,97579.30
2023-01-17T07:23:27.337Z,97580.17
2023-01-17T07:27:33.536Z,97581.35
2023-01-17T07:31:44.593Z,97576.90
2023-01-17T07:35:48.046Z,97571.89
2023-01-17T07:39:51.558Z,97570.89
2023-01-17T07:43:56.384Z,97569.64
2023-01-17T07:47:59.966Z,97576.75
2023-01-17T07:52:10.259Z,97595.67
2023-01-17T07:56:13.906Z,97598.91
2023-01-17T08:00:18.443Z,97600.25
2023-01-17T08:04:26.479Z,97594.64
2023-01-17T08:08:30.159Z,97598.07
2023-01-17T08:12:39.149Z,97600.27
2023-01-17T08:16:43.445Z,97598.98
2023-01-17T08:20:47.082Z,97601.24
2023-01-17T08:24:50.845Z,97598.33
2023-01-17T08:29:00.746Z,97589.84
2023-01-17T08:33:04.365Z,97584.95
2023-01-17T08:37:07.952Z,97578.63
2023-01-17T08:41:13.208Z,97579.15
2023-01-17T08:45:16.825Z,97581.42
2023-01-17T08:49:23.199Z,97590.53
2023-01-17T08:53:26.689Z,97586.25
2023-01-17T08:57:31.793Z,97587.95
2023-01-17T09:01:46.751Z,97592.54
2023-01-17T09:06:05.798Z,97602.13
2023-01-17T09:10:09.828Z,97608.63
2023-01-17T09:14:13.984Z,97612.19
2023-01-17T09:18:17.718Z,97616.88
2023-01-17T09:22:21.361Z,97619.94
2023-01-17T09:26:27.246Z,97617.01
2023-01-17T09:30:30.714Z,97612.28
2023-01-17T09:34:34.204Z,97610.88
2023-01-17T09:38:38.067Z,97613.42
2023-01-17T09:42:42.500Z,97611.56
2023-01-17T09:46:49.128Z,97611.98
2023-01-17T09:51:05.108Z,97616.15
2023-01-17T09:55:14.927Z,97614.26
2023-01-17T09:59:34.977Z,97616.67
2023-01-17T10:03:58.058Z,97620.61
2023-01-17T10:08:24.272Z,97624.05
2023-01-17T10:12:40.060Z,97622.64
2023-01-17T10:16:52.828Z,97625.27
2023-01-17T10:21:27.627Z,97625.33
2023-01-17T10:25:52.586Z,97632.80
2023-01-17T10:29:56.436Z,97634.43
2023-01-17T10:34:45.692Z,97639.67
2023-01-17T10:39:11.929Z,97643.25
2023-01-17T10:43:41.730Z,97650.84
2023-01-17T10:47:51.178Z,97652.48
2023-01-17T10:52:32.495Z,97654.14
2023-01-17T10:56:40.611Z,97658.91
2023-01-17T11:00:49.802Z,97659.86
2023-01-17T11:04:58.618Z,97665.86
2023-01-17T11:09:07.352Z,97667.06
2023-01-17T11:13:31.380Z,97669.80
2023-01-17T11:18:02.340Z,97664.27
2023-01-17T11:22:08.715Z,97663.09
2023-01-17T11:26:52.402Z,97662.70
2023-01-17T11:31:25.962Z,97657.32
2023-01-17T11:35:38.693Z,97651.42
2023-01-17T11:39:45.464Z,97654.83
2023-01-17T11:44:04.643Z,97654.34
2023-01-17T11:48:08.614Z,97657.92
2023-01-17T11:52:37.731Z,97665.13
2023-01-17T11:56:47.367Z,97667.61
2023-01-17T12:01:36.418Z,97669.42
2023-01-17T12:06:12.133Z,97669.16
2023-01-17T12:10:44.209Z,97666.79
2023-01-17T12:15:48.332Z,97663.94
2023-01-17T12:19:51.931Z,97654.28
2023-01-17T12:24:39.939Z,97639.65
2023-01-17T12:29:52.612Z,97630.98
2023-01-17T12:34:18.355Z,97628.02
2023-01-17T12:38:39.615Z,97618.94
2023-01-17T12:43:29.617Z,97609.71
2023-01-17T12:47:40.983Z,97604.77
2023-01-17T12:51:51.826Z,97616.88
2023-01-17T12:56:27.320Z,97625.56
2023-01-17T13:00:39.374Z,97628.71
2023-01-17T13:05:42.610Z,97628.58
2023-01-17T13:09:57.127Z,97623.77
2023-01-17T13:14:23.704Z,97624.23
2023-01-17T13:18:31.231Z,97623.43
2023-01-17T13:22:38.300Z,97625.06
2023-01-17T13:27:25.551Z,97638.59
2023-01-17T13:32:00.895Z,97648.66
2023-01-17T13:36:25.655Z,97658.73
2023-01-17T13:41:02.647Z,97664.41
2023-01-17T13:45:33.740Z,97674.48
2023-01-17T13:50:02.708Z,97660.90
2023-01-17T13:54:18.015Z,97652.34
2023-01-17T13:59:15.437Z,97643.79
2023-01-17T14:03:49.939Z,97641.81
2023-01-17T14:08:21.514Z,97639.72
2023-01-17T14:12:46.051Z,97642.92
2023-01-17T14:16:59.190Z,97652.23
2023-01-17T14:21:29.738Z,97666.50
2023-01-17T14:25:46.417Z,97675.14
2023-01-17T14:30:05.722Z,97672.45
2023-01-17T14:34:31.120Z,97679.27
2023-01-17T14:38:43.132Z,97694.66
2023-01-17T14:43:02.021Z,97712.61
2023-01-17T14:47:20.431Z,97717.95
2023-01-17T14:51:43.464Z,97718.54
2023-01-17T14:56:15.308Z,97726.14
2023-01-17T15:00:42.351Z,97727.23
2023-01-17T15:05:00.044Z,97738.59
2023-01-17T15:09:53.198Z,97751.13
2023-01-17T15:14:08.351Z,97764.85
2023-01-17T15:18:39.085Z,97769.48
2023-01-17T15:23:29.567Z,97771.54
2023-01-17T15:27:40.483Z,97774.66
2023-01-17T15:32:14.370Z,97776.60
2023-01-17T15:36:52.787Z,97785.86
2023-01-17T15:41:17.000Z,97806.55
2023-01-17T15:45:37.902Z,97816.86
2023-01-17T15:49:55.401Z,97838.21
2023-01-17T15:54:15.869Z,97844.95
